Time;durP1;ratioP1;P1;durP2;ratioP2;P2;SDS_P1;SDS_P2;PMS_P1;PMS_P2;Temp;Humidity;BMP_temperature;BMP_pressure;BME280_temperature;BME280_humidity;BME280_pressure;Samples;Min_cycle;Max_cycle;Signal;HPM_P1;HPM_P2
2022/01/12 00:00:07;;;;;;;8.93;5.22;;;2.60;92.70;;;;;;9815874;29;20385;-63
2022/01/12 00:04:58;;;;;;;10.85;4.75;;;2.50;92.70;;;;;;9824010;29;20032;-64
2022/01/12 00:09:48;;;;;;;9.35;5.07;;;2.50;93.10;;;;;;9817514;29;20028;-64
2022/01/12 00:14:39;;;;;;;10.32;5.18;;;2.40;92.70;;;;;;9817367;29;20527;-65
2022/01/12 00:19:30;;;;;;;10.32;5.00;;;2.40;92.80;;;;;;9819829;29;20179;-64
2022/01/12 00:24:20;;;;;;;9.90;4.25;;;2.40;92.90;;;;;;9816762;29;20044;-64
2022/01/12 00:34:20;;;;;;;11.05;4.63;;;2.40;92.90;;;;;;9820198;29;20256;-65
2022/01/12 00:39:11;;;;;;;6.40;3.95;;;2.30;92.90;;;;;;9817720;29;20242;-65
2022/01/12 00:44:06;;;;;;;10.40;4.57;;;2.30;93.10;;;;;;9824520;29;20044;-64
2022/01/12 00:48:58;;;;;;;11.60;4.40;;;2.20;93.10;;;;;;9813094;29;20028;-63
2022/01/12 00:53:49;;;;;;;6.82;4.07;;;2.20;93.20;;;;;;9814317;29;20032;-64
2022/01/12 00:58:41;;;;;;;7.68;4.28;;;2.10;93.10;;;;;;9820549;29;20676;-65
2022/01/12 01:03:34;;;;;;;7.63;3.85;;;2.10;93.10;;;;;;9820548;29;20596;-64
2022/01/12 01:08:24;;;;;;;9.70;4.10;;;2.00;93.20;;;;;;9817062;29;20346;-63
2022/01/12 01:13:19;;;;;;;6.18;4.00;;;2.00;93.20;;;;;;9820265;29;20047;-65
2022/01/12 01:28:28;;;;;;;6.85;4.30;;;1.90;93.20;;;;;;9815981;29;20051;-62
2022/01/12 01:33:21;;;;;;;8.23;3.90;;;1.80;93.10;;;;;;9817493;29;20466;-64
2022/01/12 01:38:11;;;;;;;7.10;3.80;;;1.70;93.10;;;;;;9819059;29;20036;-63
2022/01/12 01:53:21;;;;;;;5.65;4.05;;;1.80;93.20;;;;;;9832266;29;20515;-64
2022/01/12 01:58:12;;;;;;;8.75;4.18;;;1.80;93.00;;;;;;9817574;29;20067;-65
2022/01/12 02:03:03;;;;;;;8.73;3.75;;;1.80;93.30;;;;;;9834887;29;20071;-64
2022/01/12 02:07:53;;;;;;;9.80;4.40;;;1.90;93.30;;;;;;9833189;29;20190;-64
2022/01/12 02:12:46;;;;;;;7.72;3.80;;;1.90;93.30;;;;;;9826650;29;20057;-64
2022/01/12 02:17:42;;;;;;;8.90;3.97;;;1.90;93.30;;;;;;9829187;29;20479;-64
2022/01/12 02:50:34;;;;;;;7.30;3.55;;;1.60;93.30;;;;;;9838903;29;20043;-65
2022/01/12 02:53:42;;;;;;;7.85;3.28;;;1.80;93.40;;;;;;9833736;29;20043;-63
2022/01/12 02:58:33;;;;;;;7.38;3.60;;;1.70;93.40;;;;;;9840990;23;20074;-61
2022/01/12 03:03:25;;;;;;;9.43;4.13;;;1.70;93.40;;;;;;9823147;29;20976;-63
2022/01/12 03:08:19;;;;;;;7.03;3.13;;;1.70;93.50;;;;;;9820325;29;20032;-62
2022/01/12 03:13:10;;;;;;;8.60;4.13;;;1.60;93.60;;;;;;9820378;29;20024;-60
2022/01/12 03:18:01;;;;;;;8.70;4.05;;;1.60;93.60;;;;;;9819729;29;20483;-65
2022/01/12 03:22:51;;;;;;;12.90;4.82;;;1.50;93.60;;;;;;9818493;29;20478;-65
2022/01/12 03:27:42;;;;;;;9.80;4.32;;;1.40;93.70;;;;;;9822157;29;20581;-62
2022/01/12 03:32:45;;;;;;;11.23;4.82;;;1.20;93.80;;;;;;9819954;29;20039;-62
2022/01/12 03:37:42;;;;;;;8.65;3.85;;;1.30;93.90;;;;;;9820003;29;20099;-65
2022/01/12 03:42:33;;;;;;;6.55;3.78;;;1.20;93.90;;;;;;9822901;29;20043;-69
2022/01/12 03:47:24;;;;;;;8.48;3.95;;;1.20;93.80;;;;;;9819842;29;20150;-62
2022/01/12 03:52:14;;;;;;;6.65;3.42;;;1.20;93.80;;;;;;9817353;29;20034;-59
2022/01/12 03:57:05;;;;;;;6.75;3.85;;;1.20;93.80;;;;;;9818639;29;20052;-59
2022/01/12 04:01:56;;;;;;;6.45;3.35;;;1.30;93.70;;;;;;9820739;29;20024;-59
2022/01/12 04:11:56;;;;;;;6.80;3.28;;;1.20;93.70;;;;;;9822592;29;20095;-65
2022/01/12 04:16:47;;;;;;;5.35;3.28;;;1.20;93.60;;;;;;9817464;29;20079;-60
2022/01/12 04:21:43;;;;;;;10.05;3.47;;;1.20;93.70;;;;;;9817486;29;20035;-59
2022/01/12 04:26:34;;;;;;;5.63;2.92;;;1.10;93.90;;;;;;9818842;29;20140;-61
2022/01/12 04:31:25;;;;;;;7.03;3.08;;;1.10;94.00;;;;;;9815136;29;20036;-61
2022/01/12 04:36:16;;;;;;;6.70;3.22;;;1.20;93.90;;;;;;9815558;29;20055;-60
2022/01/12 04:41:09;;;;;;;8.27;2.63;;;1.20;93.80;;;;;;9818161;29;20113;-63
2022/01/12 04:50:58;;;;;;;6.80;3.25;;;1.10;93.70;;;;;;9813733;29;20059;-61
2022/01/12 04:55:50;;;;;;;10.32;3.80;;;1.10;93.80;;;;;;9820389;29;20065;-62
2022/01/12 05:00:43;;;;;;;7.63;3.45;;;1.00;93.70;;;;;;9819148;29;20032;-62
2022/01/12 05:15:54;;;;;;;8.90;3.60;;;1.00;93.90;;;;;;9812108;29;20052;-63
2022/01/12 05:20:46;;;;;;;4.85;2.95;;;1.10;93.90;;;;;;9814564;29;20080;-63
2022/01/12 05:25:37;;;;;;;7.10;3.15;;;1.00;94.10;;;;;;9818265;29;20135;-65
2022/01/12 05:30:27;;;;;;;9.95;3.75;;;1.00;94.00;;;;;;9821175;29;20132;-61
2022/01/12 05:35:20;;;;;;;6.35;3.20;;;1.00;93.90;;;;;;9818711;29;20095;-61
2022/01/12 05:40:12;;;;;;;6.75;3.33;;;1.00;94.10;;;;;;9817587;29;20016;-58
2022/01/12 05:45:05;;;;;;;5.55;3.08;;;1.00;93.90;;;;;;9819013;29;20032;-62
2022/01/12 05:49:56;;;;;;;4.68;2.78;;;1.00;94.10;;;;;;9813356;29;20020;-68
2022/01/12 05:54:46;;;;;;;9.48;3.83;;;0.90;94.50;;;;;;9820275;29;20480;-60
2022/01/12 05:59:37;;;;;;;7.72;2.85;;;0.90;94.20;;;;;;9818643;29;20171;-64
2022/01/12 06:04:28;;;;;;;7.65;3.72;;;0.80;94.40;;;;;;9824871;29;20055;-64
2022/01/12 06:09:19;;;;;;;7.78;3.65;;;0.80;94.20;;;;;;9816439;29;20051;-62
2022/01/12 06:14:10;;;;;;;5.47;3.38;;;0.80;94.30;;;;;;9818756;29;20036;-63
2022/01/12 06:19:01;;;;;;;8.93;3.50;;;0.80;94.40;;;;;;9813333;29;20569;-62
2022/01/12 06:23:52;;;;;;;6.65;3.22;;;0.70;94.20;;;;;;9822953;29;20051;-61
2022/01/12 06:28:53;;;;;;;7.00;3.13;;;0.70;94.30;;;;;;9815517;29;20112;-68
2022/01/12 06:33:47;;;;;;;6.90;3.28;;;0.80;94.30;;;;;;9818507;29;20501;-63
2022/01/12 06:38:38;;;;;;;6.35;2.88;;;0.80;94.20;;;;;;9824433;29;20479;-60
2022/01/12 06:43:29;;;;;;;6.45;3.10;;;0.80;94.30;;;;;;9821933;29;20036;-59
2022/01/12 06:48:20;;;;;;;4.82;3.00;;;0.80;94.10;;;;;;9827809;29;20028;-60
2022/01/12 06:53:10;;;;;;;7.95;4.70;;;0.80;94.10;;;;;;9822461;29;20506;-63
2022/01/12 06:58:01;;;;;;;7.47;3.60;;;0.70;94.20;;;;;;9824992;29;20044;-59
2022/01/12 07:02:52;;;;;;;6.03;3.25;;;0.60;94.20;;;;;;9828468;29;20096;-61
2022/01/12 07:07:42;;;;;;;9.00;3.50;;;0.60;94.20;;;;;;9821254;29;20028;-60
2022/01/12 07:12:33;;;;;;;7.80;3.95;;;0.60;94.30;;;;;;9817967;29;20491;-62
2022/01/12 07:17:24;;;;;;;5.90;3.25;;;0.60;94.20;;;;;;9818661;29;20067;-61
2022/01/12 07:22:14;;;;;;;6.90;3.60;;;0.60;94.30;;;;;;9819952;29;20087;-59
2022/01/12 07:27:05;;;;;;;7.20;3.75;;;0.60;94.30;;;;;;9820542;29;20044;-60
2022/01/12 07:31:56;;;;;;;9.90;4.45;;;0.70;94.10;;;;;;9823165;29;20016;-61
2022/01/12 07:36:47;;;;;;;19.15;5.10;;;0.70;94.10;;;;;;9817750;29;20031;-59
2022/01/12 07:41:37;;;;;;;11.60;4.88;;;0.60;94.20;;;;;;9818189;29;20056;-60
2022/01/12 07:46:28;;;;;;;11.82;5.90;;;0.60;94.30;;;;;;9815967;29;20036;-63
2022/01/12 07:51:19;;;;;;;7.60;4.18;;;0.70;94.30;;;;;;9809201;29;20030;-66
2022/01/12 07:56:10;;;;;;;10.93;4.63;;;0.70;94.30;;;;;;9816298;29;20055;-64
2022/01/12 08:01:01;;;;;;;8.57;4.05;;;0.80;94.20;;;;;;9817291;29;20039;-56
2022/01/12 08:05:51;;;;;;;10.57;4.68;;;0.80;94.30;;;;;;9817372;29;20416;-59
2022/01/12 08:10:43;;;;;;;8.73;4.05;;;0.80;94.40;;;;;;9816351;29;20538;-60
2022/01/12 08:15:33;;;;;;;9.07;4.22;;;0.90;94.30;;;;;;9816943;29;20087;-66
2022/01/12 08:20:28;;;;;;;10.75;4.90;;;1.00;94.30;;;;;;9818181;29;20474;-61
2022/01/12 08:25:18;;;;;;;10.32;4.53;;;1.00;94.30;;;;;;9819743;29;20455;-62
2022/01/12 08:30:18;;;;;;;11.77;4.82;;;1.00;94.30;;;;;;9817684;29;20166;-60
2022/01/12 08:35:09;;;;;;;10.18;4.45;;;1.10;94.20;;;;;;9814227;29;20040;-59
2022/01/12 08:39:59;;;;;;;11.10;4.85;;;1.20;94.20;;;;;;9815788;29;20032;-60
2022/01/12 08:44:50;;;;;;;8.63;4.63;;;1.20;94.30;;;;;;9816334;29;20088;-60
2022/01/12 08:49:41;;;;;;;10.13;5.07;;;1.20;94.20;;;;;;9818279;29;20044;-61
2022/01/12 08:54:32;;;;;;;8.13;4.57;;;1.10;94.40;;;;;;9820195;29;20044;-67
2022/01/12 08:59:23;;;;;;;12.48;6.38;;;1.20;94.30;;;;;;9814719;29;20036;-67
2022/01/12 09:04:13;;;;;;;9.15;5.68;;;1.30;94.40;;;;;;9814285;29;20069;-61
2022/01/12 09:09:05;;;;;;;11.15;4.95;;;1.30;94.80;;;;;;9813114;29;20128;-66
2022/01/12 09:13:55;;;;;;;8.02;5.40;;;1.50;94.30;;;;;;9814618;29;20035;-63
2022/01/12 09:18:46;;;;;;;9.50;4.85;;;1.50;94.40;;;;;;9820687;29;20357;-70
2022/01/12 09:23:37;;;;;;;10.30;4.93;;;1.60;94.40;;;;;;9814177;29;20036;-62
2022/01/12 09:28:28;;;;;;;12.80;6.03;;;1.70;94.30;;;;;;9812625;29;20024;-65
2022/01/12 09:33:19;;;;;;;13.85;5.78;;;1.70;94.40;;;;;;9818418;29;20036;-61
2022/01/12 09:38:10;;;;;;;8.00;4.78;;;1.80;94.40;;;;;;9812082;29;20029;-62
2022/01/12 09:43:05;;;;;;;13.70;5.57;;;1.80;94.30;;;;;;9814373;29;20113;-63
2022/01/12 09:47:56;;;;;;;11.38;5.47;;;1.80;94.40;;;;;;9815214;29;20040;-64
2022/01/12 09:52:47;;;;;;;10.75;4.70;;;1.90;94.40;;;;;;9815785;29;20025;-61
2022/01/12 09:57:37;;;;;;;8.07;4.18;;;1.90;94.40;;;;;;9817786;29;20135;-61
2022/01/12 10:02:28;;;;;;;11.13;5.50;;;1.90;94.30;;;;;;9815228;29;20115;-62
2022/01/12 10:07:22;;;;;;;10.88;4.72;;;1.90;94.30;;;;;;9815224;29;20041;-62
2022/01/12 10:12:18;;;;;;;12.90;6.53;;;2.10;94.20;;;;;;9819994;29;20127;-60
2022/01/12 10:17:10;;;;;;;;;;;2.20;94.20;;;;;;9821425;29;20119;-61
2022/01/12 10:22:04;;;;;;;10.10;5.25;;;2.30;93.90;;;;;;9823728;29;19915;-63
2022/01/12 10:26:56;;;;;;;12.50;5.15;;;2.30;94.10;;;;;;9822520;29;20054;-63
2022/01/12 10:31:56;;;;;;;8.48;5.03;;;2.40;94.10;;;;;;9822176;29;20040;-70
2022/01/12 10:36:48;;;;;;;10.98;5.57;;;2.40;94.00;;;;;;9820456;29;20047;-61
2022/01/12 10:42:05;;;;;;;12.52;6.43;;;2.50;94.00;;;;;;9821957;29;20025;-64
2022/01/12 10:47:09;;;;;;;11.07;5.75;;;2.50;93.90;;;;;;9819994;29;20028;-60
2022/01/12 10:52:00;;;;;;;11.43;6.18;;;2.60;93.80;;;;;;9817905;29;20391;-59
2022/01/12 10:56:51;;;;;;;11.15;6.10;;;2.80;94.10;;;;;;9820470;29;20040;-60
2022/01/12 11:01:42;;;;;;;8.05;4.43;;;2.80;93.70;;;;;;9818824;29;20398;-60
2022/01/12 11:06:33;;;;;;;11.73;5.03;;;2.70;93.60;;;;;;9822947;29;20047;-62
2022/01/12 11:11:26;;;;;;;9.40;4.85;;;2.70;93.60;;;;;;9819368;29;20527;-61
2022/01/12 11:16:21;;;;;;;8.20;4.80;;;2.70;93.50;;;;;;9819645;29;20032;-61
2022/01/12 11:21:21;;;;;;;10.43;5.03;;;2.80;93.60;;;;;;9824271;29;20171;-66
2022/01/12 11:26:27;;;;;;;8.43;5.40;;;2.90;93.60;;;;;;9817297;29;20104;-67
2022/01/12 11:31:24;;;;;;;10.63;5.30;;;3.00;93.50;;;;;;9816525;29;20036;-62
2022/01/12 11:36:20;;;;;;;9.10;5.45;;;3.00;93.40;;;;;;9819590;29;20616;-64
2022/01/12 11:41:22;;;;;;;8.57;4.60;;;3.10;93.30;;;;;;9814492;29;20440;-67
2022/01/12 11:46:28;;;;;;;10.98;5.47;;;3.20;93.30;;;;;;9820536;29;20038;-65
2022/01/12 11:51:42;;;;;;;9.07;5.85;;;3.20;93.30;;;;;;9818305;29;20037;-66
2022/01/12 11:56:33;;;;;;;8.30;5.10;;;3.40;93.10;;;;;;9802253;29;20103;-62
2022/01/12 12:01:34;;;;;;;11.73;6.15;;;3.50;93.00;;;;;;9827129;29;20039;-66
2022/01/12 12:06:25;;;;;;;7.50;4.82;;;3.60;92.90;;;;;;9826144;29;20052;-64
2022/01/12 12:11:16;;;;;;;10.10;5.82;;;3.50;92.80;;;;;;9822359;29;20024;-61
2022/01/12 12:16:07;;;;;;;11.68;6.20;;;3.60;92.90;;;;;;9819888;29;20296;-64
2022/01/12 12:20:57;;;;;;;11.57;5.70;;;3.60;92.70;;;;;;9819842;29;20088;-63
2022/01/12 12:25:48;;;;;;;11.57;6.05;;;3.60;92.80;;;;;;9821122;29;20036;-64
2022/01/12 12:30:39;;;;;;;9.23;5.75;;;3.60;92.70;;;;;;9821874;29;20979;-64
2022/01/12 12:35:32;;;;;;;10.23;5.50;;;3.70;92.60;;;;;;9816573;29;20051;-62
2022/01/12 12:40:33;;;;;;;8.70;5.85;;;3.70;92.40;;;;;;9818013;29;20027;-67
2022/01/12 12:45:35;;;;;;;7.43;4.30;;;3.70;92.60;;;;;;9815226;29;20063;-67
2022/01/12 12:50:29;;;;;;;6.80;4.00;;;3.70;92.20;;;;;;9820172;29;20016;-61
2022/01/12 12:55:20;;;;;;;9.30;5.30;;;3.50;92.30;;;;;;9820969;29;20055;-65
2022/01/12 13:00:13;;;;;;;8.68;4.68;;;3.60;92.40;;;;;;9820276;29;20463;-60
2022/01/12 13:05:12;;;;;;;8.90;4.40;;;3.60;92.30;;;;;;9818386;29;20123;-61
2022/01/12 13:10:10;;;;;;;7.13;3.88;;;3.50;92.10;;;;;;9818716;29;20024;-60
2022/01/12 13:15:01;;;;;;;8.60;3.58;;;3.50;92.20;;;;;;9815795;29;20476;-63
2022/01/12 13:24:44;;;;;;;6.22;3.30;;;3.60;91.80;;;;;;9815226;29;20056;-64
2022/01/12 13:29:35;;;;;;;8.15;4.18;;;3.50;91.60;;;;;;9815310;29;20044;-62
2022/01/12 13:34:30;;;;;;;7.53;3.63;;;3.60;91.40;;;;;;9817208;29;20310;-63
2022/01/12 13:39:21;;;;;;;6.60;3.33;;;3.70;91.30;;;;;;9813666;29;20063;-61
2022/01/12 13:44:18;;;;;;;8.25;3.70;;;3.70;91.20;;;;;;9812815;29;20071;-60
2022/01/12 13:54:15;;;;;;;5.53;4.00;;;3.80;91.30;;;;;;9817840;29;20166;-67
2022/01/12 13:59:06;;;;;;;6.38;3.47;;;4.00;91.30;;;;;;9828146;29;20040;-64
2022/01/12 14:04:07;;;;;;;7.18;3.47;;;3.90;91.00;;;;;;9817975;29;20032;-69
2022/01/12 14:09:00;;;;;;;7.70;3.92;;;3.90;91.00;;;;;;9807447;29;20040;-60
2022/01/12 14:13:50;;;;;;;6.95;3.75;;;4.00;91.20;;;;;;9816099;29;20021;-61
2022/01/12 14:18:41;;;;;;;5.20;3.75;;;4.00;91.00;;;;;;9813150;29;20040;-63
2022/01/12 14:23:38;;;;;;;6.47;3.47;;;4.00;91.00;;;;;;9814963;29;20353;-65
2022/01/12 14:28:32;;;;;;;5.40;2.92;;;4.00;91.10;;;;;;9815271;29;20033;-64
2022/01/12 14:33:23;;;;;;;8.02;3.72;;;4.00;90.90;;;;;;9813131;29;20032;-68
2022/01/12 14:38:14;;;;;;;5.55;3.72;;;4.00;91.00;;;;;;9813138;29;20043;-61
2022/01/12 14:43:08;;;;;;;7.22;3.72;;;4.00;90.80;;;;;;9816881;29;20021;-66
2022/01/12 14:48:05;;;;;;;6.80;3.53;;;4.00;90.80;;;;;;9817406;29;20265;-66
2022/01/12 14:52:55;;;;;;;6.00;4.15;;;4.00;90.90;;;;;;9817384;29;20033;-61
2022/01/12 14:57:46;;;;;;;8.15;3.92;;;4.00;90.90;;;;;;9818543;29;20056;-63
2022/01/12 15:02:37;;;;;;;7.00;3.70;;;4.00;90.90;;;;;;9819720;29;20065;-59
2022/01/12 15:07:28;;;;;;;6.47;4.07;;;3.90;90.80;;;;;;9818223;29;20091;-63
2022/01/12 15:12:26;;;;;;;5.60;3.13;;;3.90;90.90;;;;;;9820362;29;20020;-67
2022/01/12 15:17:17;;;;;;;3.35;2.92;;;3.90;90.70;;;;;;9823804;29;20087;-67
2022/01/12 15:22:07;;;;;;;8.30;3.13;;;3.90;90.60;;;;;;9820630;29;20083;-63
2022/01/12 15:26:58;;;;;;;4.22;2.95;;;3.90;90.70;;;;;;9821963;29;20050;-60
2022/01/12 15:31:49;;;;;;;5.10;3.08;;;3.80;90.50;;;;;;9821368;29;20132;-70
2022/01/12 15:36:40;;;;;;;4.95;2.42;;;3.80;90.80;;;;;;9819419;29;20028;-56
2022/01/12 15:41:30;;;;;;;5.00;2.72;;;3.80;90.80;;;;;;9817958;29;20024;-64
2022/01/12 15:46:21;;;;;;;4.05;2.03;;;3.70;90.30;;;;;;9819367;29;20410;-65
2022/01/12 15:51:12;;;;;;;5.22;2.63;;;3.60;90.30;;;;;;9819661;29;20020;-61
2022/01/12 15:56:03;;;;;;;4.93;3.13;;;3.60;90.50;;;;;;9821293;29;20059;-60
2022/01/12 16:00:54;;;;;;;5.68;2.90;;;3.50;90.70;;;;;;9819892;29;20163;-62
2022/01/12 16:05:44;;;;;;;5.05;3.22;;;3.50;90.40;;;;;;9818569;29;20060;-61
2022/01/12 16:10:37;;;;;;;4.00;2.95;;;3.50;90.40;;;;;;9816468;29;20164;-61
2022/01/12 16:15:28;;;;;;;4.65;3.10;;;3.40;90.40;;;;;;9821651;29;20170;-61
2022/01/12 16:20:20;;;;;;;6.97;3.13;;;3.30;90.50;;;;;;9817209;29;20450;-66
2022/01/12 16:25:12;;;;;;;5.18;3.10;;;3.30;90.50;;;;;;9816788;29;20123;-61
2022/01/12 16:30:31;;;;;;;6.00;3.38;;;3.20;90.50;;;;;;9818052;29;20094;-66
2022/01/12 16:35:22;;;;;;;4.10;2.75;;;3.20;90.60;;;;;;9815994;29;20040;-62
2022/01/12 16:40:13;;;;;;;7.90;3.97;;;3.20;90.60;;;;;;9817548;29;20023;-65
2022/01/12 16:45:04;;;;;;;5.53;3.17;;;3.20;90.60;;;;;;9817031;29;20040;-62
2022/01/12 16:49:56;;;;;;;7.15;3.17;;;3.20;90.60;;;;;;9817105;29;20024;-65
2022/01/12 16:54:46;;;;;;;7.35;3.42;;;3.10;90.60;;;;;;9820684;29;20093;-68
2022/01/12 16:59:37;;;;;;;4.88;2.60;;;3.10;90.70;;;;;;9823354;29;20028;-61
2022/01/12 17:04:28;;;;;;;6.20;3.28;;;3.10;90.70;;;;;;9818558;29;20040;-61
2022/01/12 17:09:19;;;;;;;5.28;3.10;;;3.00;90.70;;;;;;9818802;29;20044;-64
2022/01/12 17:14:09;;;;;;;7.03;4.15;;;3.10;90.70;;;;;;9820414;29;20032;-64
2022/01/12 17:19:18;;;;;;;9.75;4.43;;;3.00;90.80;;;;;;9817962;29;20195;-63
2022/01/12 17:24:26;;;;;;;8.00;4.03;;;3.00;90.80;;;;;;9816220;29;20102;-64
2022/01/12 17:29:19;;;;;;;12.00;4.85;;;3.00;90.80;;;;;;9816582;29;20106;-61
2022/01/12 17:34:12;;;;;;;6.68;3.90;;;2.90;90.80;;;;;;9811445;29;20079;-66
2022/01/12 17:39:24;;;;;;;10.80;5.00;;;2.90;90.90;;;;;;9814552;29;20439;-66
2022/01/12 17:44:16;;;;;;;11.15;4.93;;;2.80;90.90;;;;;;9815453;29;20327;-60
2022/01/12 17:49:28;;;;;;;11.73;6.05;;;2.80;91.10;;;;;;9812342;29;20058;-65
2022/01/12 17:54:21;;;;;;;12.68;5.63;;;2.70;91.10;;;;;;9819715;29;20036;-62
2022/01/12 17:59:12;;;;;;;10.80;4.63;;;2.70;91.10;;;;;;9814400;29;20522;-62
2022/01/12 18:04:03;;;;;;;8.93;4.72;;;2.70;91.10;;;;;;9817465;29;20076;-60
2022/01/12 18:08:54;;;;;;;8.57;4.80;;;2.60;91.20;;;;;;9815001;29;20032;-61
2022/01/12 18:13:45;;;;;;;8.07;5.15;;;2.60;91.10;;;;;;9816212;29;20043;-62
2022/01/12 18:18:37;;;;;;;9.25;4.32;;;2.60;91.20;;;;;;9812087;29;20024;-63
2022/01/12 18:23:28;;;;;;;10.20;4.97;;;2.60;91.10;;;;;;9806097;29;20035;-60
2022/01/12 18:28:20;;;;;;;12.45;5.43;;;2.60;91.20;;;;;;9811306;29;20403;-60
2022/01/12 18:33:10;;;;;;;10.68;5.32;;;2.50;91.20;;;;;;9821778;29;20036;-63
2022/01/12 18:38:02;;;;;;;10.02;4.32;;;2.50;91.20;;;;;;9823047;29;20028;-67
2022/01/12 18:42:52;;;;;;;11.57;5.50;;;2.50;91.40;;;;;;9821250;29;20056;-61
2022/01/12 18:47:43;;;;;;;14.05;5.53;;;2.60;91.30;;;;;;9820385;29;20068;-62
2022/01/12 18:52:36;;;;;;;9.13;5.07;;;2.50;91.30;;;;;;9818961;29;20421;-63
2022/01/12 18:57:26;;;;;;;12.05;5.57;;;2.40;91.30;;;;;;9822657;29;20044;-64
2022/01/12 19:02:17;;;;;;;13.43;7.28;;;2.30;91.50;;;;;;9816820;29;20032;-67
2022/01/12 19:07:08;;;;;;;9.55;5.10;;;2.30;91.50;;;;;;9822022;29;20052;-66
2022/01/12 19:11:59;;;;;;;11.52;6.30;;;2.30;91.50;;;;;;9830823;29;20423;-64
2022/01/12 19:16:51;;;;;;;13.25;6.13;;;2.20;91.40;;;;;;9824926;29;20091;-62
2022/01/12 19:21:43;;;;;;;13.43;5.82;;;2.20;91.60;;;;;;9828222;29;20024;-62
2022/01/12 19:26:38;;;;;;;10.57;6.00;;;2.20;91.70;;;;;;9827548;29;20422;-61
2022/01/12 19:31:29;;;;;;;9.80;5.38;;;2.20;91.60;;;;;;9822797;29;20024;-60
2022/01/12 19:36:21;;;;;;;8.55;4.65;;;2.10;91.60;;;;;;9819134;29;20180;-66
2022/01/12 19:41:11;;;;;;;8.88;5.00;;;2.10;91.80;;;;;;9818461;29;20028;-61
2022/01/12 19:46:02;;;;;;;12.48;5.07;;;2.10;91.70;;;;;;9823237;29;20044;-60
2022/01/12 19:50:53;;;;;;;11.00;5.93;;;2.10;91.80;;;;;;9821746;29;20032;-64
2022/01/12 19:55:59;;;;;;;21.13;11.13;;;2.10;91.90;;;;;;9819778;29;20055;-64
2022/01/12 20:00:54;;;;;;;13.32;8.30;;;2.20;91.80;;;;;;9822579;29;20032;-59
2022/01/12 20:05:45;;;;;;;10.52;5.78;;;2.30;91.80;;;;;;9820812;29;20052;-62
2022/01/12 20:10:36;;;;;;;12.35;6.55;;;2.20;91.80;;;;;;9825270;29;20107;-62
2022/01/12 20:15:27;;;;;;;12.60;6.30;;;2.10;91.80;;;;;;9825778;29;20036;-66
2022/01/12 20:25:37;;;;;;;11.60;6.03;;;2.00;91.90;;;;;;9820286;29;20055;-66
2022/01/12 20:30:28;;;;;;;13.05;5.45;;;1.90;92.00;;;;;;9820877;29;20039;-66
2022/01/12 20:35:19;;;;;;;14.35;6.40;;;2.00;92.10;;;;;;9822494;29;20040;-65
2022/01/12 20:40:11;;;;;;;10.57;6.68;;;1.90;92.10;;;;;;9817776;29;20054;-70
2022/01/12 20:45:04;;;;;;;11.32;6.38;;;1.90;92.10;;;;;;9820519;29;20066;-69
2022/01/12 20:49:55;;;;;;;12.18;6.15;;;1.90;92.10;;;;;;9821510;29;20042;-67
2022/01/12 20:54:46;;;;;;;16.85;6.38;;;1.90;92.20;;;;;;9816347;29;20036;-66
2022/01/12 20:59:39;;;;;;;17.27;7.00;;;1.90;92.20;;;;;;9818156;29;20283;-64
2022/01/12 21:04:32;;;;;;;15.93;6.97;;;1.80;92.10;;;;;;9816518;29;20035;-65
2022/01/12 21:09:24;;;;;;;13.05;6.80;;;1.80;92.20;;;;;;9814530;29;20025;-66
2022/01/12 21:14:17;;;;;;;12.13;5.82;;;1.80;92.20;;;;;;9818576;29;20037;-65
2022/01/12 21:19:08;;;;;;;14.65;6.80;;;1.70;92.40;;;;;;9816181;29;20649;-68
2022/01/12 21:23:59;;;;;;;11.32;6.10;;;1.80;92.30;;;;;;9820879;29;20040;-65
2022/01/12 21:28:49;;;;;;;9.98;6.47;;;1.70;92.30;;;;;;9826833;29;20057;-63
2022/01/12 21:33:42;;;;;;;10.52;6.18;;;1.70;92.40;;;;;;9821532;29;20119;-66
2022/01/12 21:38:43;;;;;;;16.00;5.97;;;1.70;92.40;;;;;;9821079;29;20039;-63
2022/01/12 21:43:34;;;;;;;13.10;6.38;;;1.60;92.40;;;;;;9823117;29;20491;-62
2022/01/12 21:48:24;;;;;;;11.30;6.60;;;1.60;92.50;;;;;;9795441;29;20047;-65
2022/01/12 21:53:18;;;;;;;15.45;6.95;;;1.60;92.40;;;;;;9811236;29;20024;-64
2022/01/12 21:58:08;;;;;;;12.00;6.25;;;1.50;92.50;;;;;;9816452;29;20670;-61
2022/01/12 22:02:59;;;;;;;13.52;6.88;;;1.50;92.40;;;;;;9816599;29;20143;-63
2022/01/12 22:07:50;;;;;;;13.60;6.68;;;1.50;92.40;;;;;;9821164;29;20035;-60
2022/01/12 22:12:42;;;;;;;9.00;5.53;;;1.60;92.50;;;;;;9824593;29;20036;-63
2022/01/12 22:17:33;;;;;;;10.43;5.82;;;1.50;92.60;;;;;;9824652;29;20020;-65
2022/01/12 22:22:24;;;;;;;10.30;5.95;;;1.50;92.60;;;;;;9825610;29;20060;-61
2022/01/12 22:27:15;;;;;;;16.80;7.03;;;1.50;92.60;;;;;;9830160;29;20039;-68
2022/01/12 22:32:06;;;;;;;12.02;6.20;;;1.50;92.60;;;;;;9832314;29;20040;-61
2022/01/12 22:36:56;;;;;;;10.82;5.60;;;1.40;92.70;;;;;;9826055;29;20024;-61
2022/01/12 22:41:47;;;;;;;16.02;6.95;;;1.40;92.80;;;;;;9824464;29;20083;-66
2022/01/12 22:46:38;;;;;;;13.63;6.45;;;1.40;92.70;;;;;;9824479;29;20406;-60
2022/01/12 22:51:29;;;;;;;15.55;6.93;;;1.40;92.70;;;;;;9831125;29;20349;-64
2022/01/12 22:56:22;;;;;;;13.68;6.75;;;1.30;92.70;;;;;;9835281;29;20142;-65
2022/01/12 23:01:16;;;;;;;17.27;7.20;;;1.30;92.60;;;;;;9823771;29;20675;-60
2022/01/12 23:06:09;;;;;;;11.32;6.15;;;1.30;92.60;;;;;;9816888;29;20036;-59
2022/01/12 23:10:59;;;;;;;13.13;7.22;;;1.20;92.70;;;;;;9821372;29;20028;-69
2022/01/12 23:15:50;;;;;;;14.80;6.97;;;1.20;92.70;;;;;;9823115;29;20517;-64
2022/01/12 23:20:41;;;;;;;15.32;7.80;;;1.20;92.80;;;;;;9822757;29;20042;-61
2022/01/12 23:25:31;;;;;;;14.07;7.28;;;1.10;92.80;;;;;;9826948;29;20044;-63
2022/01/12 23:30:24;;;;;;;12.13;6.57;;;1.00;92.90;;;;;;9822905;29;20088;-60
2022/01/12 23:40:54;;;;;;;11.13;5.15;;;1.00;92.90;;;;;;9821318;29;20352;-60
